Barksdale, Texas
Current Conditions -  °F | °C
As of 2:10 PM on Saturday 27 Dec 2014 (Local Time) from KECU Reporting Station
Overcast Overcast  
Wind Chill: 33°   Ceiling: 1500
Heat Index: 41°   Visibility: 10mi
Dew Point: 36°   Wind: 14mph
Humidity: 81%   Direction: 20°NNE
Pressure: 30.15"   Gusts: 25mph
Location:  29.73°N, 100.04°W
Report Text: KECU 272010Z AUTO 02012G22KT 10SM OVC015 05/02 A3015 RMK AO2
Loading
Personal Weather Stations






























Interactive Weather Map New forecast layout! Learn more

10-Day Weather Forecast

Advertisements
Track Severe Weather on mobile